createdAt,value
2022-08-12T00:00:10.086Z,7.01
2022-08-12T00:01:11.335Z,7.16
2022-08-12T00:02:10.149Z,8.30
2022-08-12T00:03:09.413Z,8.00
2022-08-12T00:04:08.196Z,6.34
2022-08-12T00:05:08.354Z,5.85
2022-08-12T00:06:09.852Z,7.65
2022-08-12T00:07:10.327Z,7.60
2022-08-12T00:08:16.345Z,6.60
2022-08-12T00:09:28.332Z,7.14
2022-08-12T00:10:41.362Z,7.50
2022-08-12T00:11:55.338Z,6.55
2022-08-12T00:13:07.325Z,6.70
2022-08-12T00:14:06.344Z,6.96
2022-08-12T00:15:05.816Z,8.66
2022-08-12T00:16:09.332Z,8.25
2022-08-12T00:17:09.398Z,6.68
2022-08-12T00:18:08.327Z,7.09
2022-08-12T00:19:13.354Z,7.94
2022-08-12T00:20:25.334Z,7.25
2022-08-12T00:21:45.314Z,7.99
2022-08-12T00:23:00.413Z,7.39
2022-08-12T00:24:14.353Z,7.32
2022-08-12T00:25:55.753Z,7.50
2022-08-12T00:27:06.336Z,6.84
2022-08-12T00:28:19.322Z,6.45
2022-08-12T00:29:32.342Z,6.60
2022-08-12T00:30:45.309Z,7.45
2022-08-12T00:31:57.317Z,7.75
2022-08-12T00:33:10.312Z,7.88
2022-08-12T00:34:23.299Z,7.71
2022-08-12T00:35:24.414Z,6.80
2022-08-12T00:36:34.824Z,6.85
2022-08-12T00:37:35.327Z,6.72
2022-08-12T00:38:33.839Z,8.11
2022-08-12T00:39:33.378Z,5.72
2022-08-12T00:40:42.391Z,6.22
2022-08-12T00:41:57.293Z,7.06
2022-08-12T00:42:54.313Z,7.11
2022-08-12T00:43:50.313Z,6.99
2022-08-12T00:44:55.321Z,6.44
2022-08-12T00:46:07.328Z,7.13
2022-08-12T00:47:25.626Z,7.74
2022-08-12T00:48:20.293Z,6.21
2022-08-12T00:49:15.332Z,6.59
2022-08-12T00:50:10.300Z,6.99
2022-08-12T00:51:06.307Z,7.05
2022-08-12T00:52:05.285Z,7.47
2022-08-12T00:52:45.469Z,7.26
2022-08-12T00:53:27.282Z,6.94
2022-08-12T00:54:07.363Z,7.07
2022-08-12T00:54:55.289Z,6.49
2022-08-12T00:55:35.594Z,6.31
2022-08-12T00:56:17.316Z,6.54
2022-08-12T00:56:57.378Z,6.73
2022-08-12T00:57:44.286Z,6.16
2022-08-12T00:58:31.113Z,6.72
2022-08-12T00:59:12.282Z,7.24
2022-08-12T00:59:59.358Z,9.11
2022-08-12T01:00:41.268Z,9.86
2022-08-12T01:01:29.394Z,9.36
2022-08-12T01:02:50.286Z,8.36
2022-08-12T01:04:07.303Z,6.19
2022-08-12T01:05:24.278Z,7.72
2022-08-12T01:06:36.308Z,8.13
2022-08-12T01:07:48.268Z,7.11
2022-08-12T01:09:17.301Z,7.01
2022-08-12T01:10:33.050Z,6.30
2022-08-12T01:11:36.307Z,5.91
2022-08-12T01:12:31.270Z,6.97
2022-08-12T01:13:28.265Z,6.69
2022-08-12T01:14:22.269Z,6.07
2022-08-12T01:15:18.290Z,6.72
2022-08-12T01:16:18.284Z,8.54
2022-08-12T01:16:59.322Z,8.57
2022-08-12T01:17:39.349Z,7.89
2022-08-12T01:18:23.277Z,7.06
2022-08-12T01:19:04.331Z,6.38
2022-08-12T01:19:45.255Z,7.13
2022-08-12T01:20:55.832Z,7.22
2022-08-12T01:22:07.298Z,8.29
2022-08-12T01:23:43.422Z,8.09
2022-08-12T01:25:13.264Z,7.91
2022-08-12T01:25:56.017Z,7.32
2022-08-12T01:26:39.291Z,6.93
2022-08-12T01:27:28.286Z,7.94
2022-08-12T01:28:25.279Z,10.50
2022-08-12T01:29:21.279Z,7.36
2022-08-12T01:30:23.288Z,7.85
2022-08-12T01:31:19.258Z,8.75
2022-08-12T01:32:19.259Z,6.75
2022-08-12T01:33:01.288Z,7.49
2022-08-12T01:34:35.620Z,7.78
2022-08-12T01:35:18.258Z,6.25
2022-08-12T01:36:08.728Z,6.80
2022-08-12T01:37:05.270Z,7.91
2022-08-12T01:38:12.278Z,7.66
2022-08-12T01:39:08.241Z,8.46
2022-08-12T01:40:36.210Z,9.14
2022-08-12T01:41:23.277Z,6.94
2022-08-12T01:42:22.266Z,8.16
2022-08-12T01:43:28.358Z,9.70
2022-08-12T01:44:23.245Z,8.10
2022-08-12T01:45:19.269Z,7.71
2022-08-12T01:46:29.238Z,8.38
2022-08-12T01:48:21.260Z,7.50
2022-08-12T01:49:47.278Z,7.61
2022-08-12T01:50:33.247Z,7.05
2022-08-12T01:52:11.490Z,7.11
2022-08-12T01:52:44.719Z,7.31
2022-08-12T01:53:27.232Z,6.46
2022-08-12T01:54:13.978Z,6.34
2022-08-12T01:54:56.265Z,6.60
2022-08-12T01:55:40.318Z,7.54
2022-08-12T01:56:21.249Z,8.52
2022-08-12T01:57:57.741Z,8.11
2022-08-12T01:59:04.236Z,7.01
2022-08-12T02:00:35.664Z,6.56
2022-08-12T02:01:47.256Z,7.07
2022-08-12T02:02:53.249Z,6.75
2022-08-12T02:04:26.234Z,6.05
2022-08-12T02:06:14.246Z,6.26
2022-08-12T02:08:09.243Z,7.50
2022-08-12T02:09:30.225Z,7.01
2022-08-12T02:11:20.247Z,6.59
2022-08-12T02:12:55.213Z,6.64
2022-08-12T02:14:26.246Z,6.71
2022-08-12T02:15:28.235Z,6.32
2022-08-12T02:16:56.265Z,7.28
2022-08-12T02:18:12.218Z,7.00
2022-08-12T02:19:32.204Z,6.04
2022-08-12T02:20:57.222Z,7.28
2022-08-12T02:22:04.744Z,7.06
2022-08-12T02:23:00.223Z,7.85
2022-08-12T02:23:56.216Z,8.21
2022-08-12T02:24:53.215Z,8.70
2022-08-12T02:25:55.197Z,8.09
2022-08-12T02:26:54.226Z,7.04
2022-08-12T02:27:35.241Z,6.89
2022-08-12T02:28:15.290Z,7.82
2022-08-12T02:28:56.203Z,8.39
2022-08-12T02:29:36.296Z,6.10
2022-08-12T02:30:21.210Z,6.80
2022-08-12T02:31:02.753Z,7.55
2022-08-12T02:31:44.194Z,7.10
2022-08-12T02:32:24.317Z,6.95
2022-08-12T02:33:07.218Z,7.55
2022-08-12T02:33:48.377Z,7.29
2022-08-12T02:34:29.229Z,7.31
2022-08-12T02:35:09.282Z,6.15
2022-08-12T02:35:50.218Z,6.89
2022-08-12T02:36:32.725Z,7.13
2022-08-12T02:37:16.198Z,6.09
2022-08-12T02:38:03.268Z,5.97
2022-08-12T02:38:44.207Z,7.06
2022-08-12T02:39:26.776Z,7.22
2022-08-12T02:40:12.052Z,6.45
2022-08-12T02:41:08.216Z,6.89
2022-08-12T02:42:02.208Z,5.81
2022-08-12T02:43:18.206Z,6.63
2022-08-12T02:44:16.284Z,7.03
2022-08-12T02:44:52.309Z,6.70
2022-08-12T02:45:54.185Z,7.60
2022-08-12T02:46:36.821Z,6.90
2022-08-12T02:47:59.391Z,7.10
2022-08-12T02:48:30.205Z,6.40
2022-08-12T02:49:24.219Z,5.89
2022-08-12T02:50:00.295Z,5.53
2022-08-12T02:50:54.190Z,5.65
2022-08-12T02:51:45.289Z,5.34
2022-08-12T02:52:33.169Z,6.94
2022-08-12T02:53:07.633Z,7.56
2022-08-12T02:54:04.753Z,7.34
2022-08-12T02:54:48.220Z,7.94
2022-08-12T02:55:43.194Z,6.79
2022-08-12T02:56:38.274Z,6.55
2022-08-12T02:57:33.173Z,6.35
2022-08-12T02:58:33.004Z,6.93
2022-08-12T02:59:29.188Z,6.13
2022-08-12T03:00:14.222Z,5.71
2022-08-12T03:00:55.286Z,6.09
2022-08-12T03:01:47.393Z,6.78
2022-08-12T03:02:29.244Z,6.41
2022-08-12T03:03:18.177Z,5.35
2022-08-12T03:03:59.250Z,5.31
2022-08-12T03:04:57.166Z,6.86
2022-08-12T03:05:44.351Z,7.21
2022-08-12T03:06:27.395Z,6.10
2022-08-12T03:07:49.265Z,5.47
2022-08-12T03:08:32.467Z,5.72
2022-08-12T03:09:22.172Z,5.85
2022-08-12T03:10:07.118Z,5.99
2022-08-12T03:10:57.181Z,6.50
2022-08-12T03:11:50.252Z,6.57
2022-08-12T03:12:49.344Z,6.89
2022-08-12T03:13:27.321Z,6.74
2022-08-12T03:14:21.192Z,6.70
2022-08-12T03:14:56.702Z,6.86
2022-08-12T03:15:44.171Z,8.34
2022-08-12T03:16:25.202Z,8.50
2022-08-12T03:17:41.189Z,6.97
2022-08-12T03:18:46.477Z,5.65
2022-08-12T03:20:09.357Z,6.20
2022-08-12T03:20:55.196Z,5.55
2022-08-12T03:21:55.669Z,5.45
2022-08-12T03:22:40.528Z,5.43
2022-08-12T03:23:31.235Z,6.31
2022-08-12T03:24:06.221Z,5.57
2022-08-12T03:24:54.140Z,6.28
2022-08-12T03:25:31.694Z,5.30
2022-08-12T03:26:20.165Z,5.06
2022-08-12T03:27:02.197Z,7.10
2022-08-12T03:28:02.151Z,7.29
2022-08-12T03:29:00.171Z,5.25
2022-08-12T03:29:56.160Z,5.15
2022-08-12T03:30:56.532Z,6.85
2022-08-12T03:31:51.184Z,6.96
2022-08-12T03:32:35.278Z,5.57
2022-08-12T03:33:19.487Z,5.00
2022-08-12T03:34:02.166Z,5.41
2022-08-12T03:34:45.601Z,6.74
2022-08-12T03:35:41.263Z,5.49
2022-08-12T03:36:26.238Z,5.68
2022-08-12T03:37:09.138Z,6.15
2022-08-12T03:37:52.164Z,5.75
2022-08-12T03:38:27.439Z,5.84
2022-08-12T03:39:36.281Z,8.56
2022-08-12T03:40:31.182Z,6.15
2022-08-12T03:41:44.158Z,6.07
2022-08-12T03:42:51.785Z,5.51
2022-08-12T03:44:00.169Z,5.40
2022-08-12T03:45:14.048Z,5.86
2022-08-12T03:46:15.170Z,5.56
2022-08-12T03:47:28.236Z,5.41
2022-08-12T03:48:29.818Z,7.51
2022-08-12T03:49:31.221Z,8.15
2022-08-12T03:50:24.153Z,6.97
2022-08-12T03:51:17.651Z,6.54
2022-08-12T03:52:17.156Z,7.39
2022-08-12T03:53:10.012Z,6.29
2022-08-12T03:54:02.334Z,7.64
2022-08-12T03:55:01.161Z,7.22
2022-08-12T03:55:53.801Z,6.70
2022-08-12T03:56:46.800Z,6.66
2022-08-12T03:57:46.140Z,6.45
2022-08-12T03:58:41.669Z,5.68
2022-08-12T03:59:34.609Z,5.78
2022-08-12T04:00:31.169Z,6.28
2022-08-12T04:01:05.834Z,6.85
2022-08-12T04:01:41.283Z,5.75
2022-08-12T04:02:23.117Z,5.53
2022-08-12T04:03:02.200Z,6.86
2022-08-12T04:03:54.870Z,5.90
2022-08-12T04:04:41.170Z,6.96
2022-08-12T04:05:21.585Z,7.76
2022-08-12T04:06:03.154Z,6.84
2022-08-12T04:06:50.191Z,6.50
2022-08-12T04:07:30.131Z,5.78
2022-08-12T04:08:11.746Z,6.95
2022-08-12T04:08:54.117Z,8.27
2022-08-12T04:09:35.225Z,6.54
2022-08-12T04:10:16.112Z,7.09
2022-08-12T04:11:21.157Z,6.86
2022-08-12T04:12:13.246Z,5.94
2022-08-12T04:13:23.155Z,6.41
2022-08-12T04:14:11.678Z,6.53
2022-08-12T04:15:00.124Z,6.46
2022-08-12T04:15:33.972Z,5.34
2022-08-12T04:16:24.162Z,5.82
2022-08-12T04:17:04.229Z,6.28
2022-08-12T04:18:06.488Z,5.32
2022-08-12T04:18:42.403Z,6.49
2022-08-12T04:19:31.126Z,6.96
2022-08-12T04:20:05.514Z,5.82
2022-08-12T04:20:55.118Z,6.70
2022-08-12T04:21:35.138Z,6.68
2022-08-12T04:22:16.175Z,6.01
2022-08-12T04:22:57.109Z,6.54
2022-08-12T04:23:38.305Z,6.80
2022-08-12T04:24:19.125Z,6.82
2022-08-12T04:25:02.441Z,5.63
2022-08-12T04:25:47.128Z,6.10
2022-08-12T04:26:27.320Z,7.28
2022-08-12T04:27:07.126Z,6.78
2022-08-12T04:27:52.170Z,6.05
2022-08-12T04:28:34.112Z,6.24
2022-08-12T04:29:15.214Z,6.13
2022-08-12T04:30:16.963Z,5.94
2022-08-12T04:30:58.084Z,5.39
2022-08-12T04:31:47.111Z,5.16
2022-08-12T04:32:27.134Z,6.06
2022-08-12T04:33:01.218Z,5.72
2022-08-12T04:33:35.484Z,5.43
2022-08-12T04:34:18.114Z,5.60
2022-08-12T04:34:52.160Z,4.84
2022-08-12T04:35:26.033Z,4.72
2022-08-12T04:36:07.093Z,5.91
2022-08-12T04:36:43.163Z,6.01
2022-08-12T04:37:16.827Z,4.51
2022-08-12T04:38:03.125Z,5.36
2022-08-12T04:38:37.177Z,6.54
2022-08-12T04:39:12.153Z,5.53
2022-08-12T04:39:53.201Z,4.41
2022-08-12T04:40:30.264Z,4.35
2022-08-12T04:41:17.094Z,4.72
2022-08-12T04:41:58.651Z,4.31
2022-08-12T04:42:46.088Z,5.49
2022-08-12T04:44:01.592Z,6.05
2022-08-12T04:44:41.109Z,4.88
2022-08-12T04:45:36.093Z,5.11
2022-08-12T04:46:33.548Z,6.05
2022-08-12T04:47:30.088Z,6.28
2022-08-12T04:48:24.095Z,5.01
2022-08-12T04:49:05.111Z,4.90
2022-08-12T04:49:46.174Z,4.78
2022-08-12T04:50:35.990Z,4.28
2022-08-12T04:51:17.161Z,4.43
2022-08-12T04:51:59.221Z,4.90
2022-08-12T04:52:40.164Z,5.45
2022-08-12T04:53:21.083Z,5.86
2022-08-12T04:54:01.299Z,5.00
2022-08-12T04:54:42.191Z,4.88
2022-08-12T04:55:23.174Z,4.91
2022-08-12T04:56:04.081Z,4.49
2022-08-12T04:56:44.181Z,5.28
2022-08-12T04:57:45.088Z,4.78
2022-08-12T04:58:29.937Z,5.25
2022-08-12T04:59:12.100Z,4.64
2022-08-12T04:59:59.121Z,4.05
2022-08-12T05:00:53.083Z,5.84
2022-08-12T05:01:47.079Z,7.32
2022-08-12T05:02:41.277Z,6.35
2022-08-12T05:03:46.268Z,5.32
2022-08-12T05:04:42.088Z,5.40
2022-08-12T05:05:33.847Z,5.68
2022-08-12T05:06:21.503Z,6.03
2022-08-12T05:07:09.080Z,6.66
2022-08-12T05:07:53.906Z,8.30
2022-08-12T05:08:36.090Z,10.57
2022-08-12T05:09:16.139Z,6.63
2022-08-12T05:09:59.932Z,5.41
2022-08-12T05:10:49.120Z,5.61
2022-08-12T05:11:53.891Z,7.16
2022-08-12T05:12:53.268Z,4.72
2022-08-12T05:13:54.073Z,5.13
2022-08-12T05:14:48.096Z,5.39
2022-08-12T05:16:03.662Z,5.00
2022-08-12T05:16:44.116Z,5.20
2022-08-12T05:17:27.988Z,5.88
2022-08-12T05:18:19.547Z,5.39
2022-08-12T05:19:01.142Z,4.78
2022-08-12T05:19:43.421Z,5.04
2022-08-12T05:20:26.072Z,5.11
2022-08-12T05:21:07.065Z,5.22
2022-08-12T05:21:54.115Z,5.36
2022-08-12T05:22:48.084Z,5.10
2022-08-12T05:23:42.086Z,5.15
2022-08-12T05:24:36.073Z,5.20
2022-08-12T05:25:30.064Z,6.22
2022-08-12T05:26:25.057Z,5.94
2022-08-12T05:27:12.080Z,5.38
2022-08-12T05:27:58.465Z,5.66
2022-08-12T05:28:48.077Z,4.54
2022-08-12T05:30:07.041Z,4.93
2022-08-12T05:30:29.062Z,5.99
2022-08-12T05:31:05.197Z,6.74
2022-08-12T05:31:52.062Z,6.05
2022-08-12T05:32:35.075Z,5.65
2022-08-12T05:33:33.070Z,6.38
2022-08-12T05:34:27.080Z,5.66
2022-08-12T05:35:22.561Z,6.41
2022-08-12T05:36:20.092Z,5.32
2022-08-12T05:37:14.111Z,5.94
2022-08-12T05:37:55.066Z,6.16
2022-08-12T05:38:53.844Z,5.49
2022-08-12T05:39:34.101Z,5.69
2022-08-12T05:40:15.119Z,5.20
2022-08-12T05:40:56.046Z,4.78
2022-08-12T05:41:40.113Z,4.76
2022-08-12T05:42:21.064Z,5.40
2022-08-12T05:43:16.097Z,5.64
2022-08-12T05:43:51.040Z,4.76
2022-08-12T05:44:38.062Z,4.81
2022-08-12T05:45:14.123Z,5.29
2022-08-12T05:46:02.054Z,5.16
2022-08-12T05:46:38.171Z,4.79
2022-08-12T05:47:38.485Z,4.63
2022-08-12T05:48:27.076Z,5.44
2022-08-12T05:49:21.068Z,6.84
2022-08-12T05:50:15.049Z,5.20
2022-08-12T05:51:09.050Z,4.51
2022-08-12T05:52:03.036Z,5.10
2022-08-12T05:52:57.050Z,6.00
2022-08-12T05:53:47.065Z,4.70
2022-08-12T05:54:31.032Z,5.19
2022-08-12T05:55:31.361Z,5.28
2022-08-12T05:56:05.193Z,4.75
2022-08-12T05:56:52.037Z,4.80
2022-08-12T05:57:26.141Z,5.50
2022-08-12T05:58:15.045Z,4.46
2022-08-12T05:58:56.148Z,5.30
2022-08-12T05:59:50.040Z,4.38
2022-08-12T06:00:46.041Z,3.53
2022-08-12T06:02:09.529Z,3.64
2022-08-12T06:02:55.073Z,4.07
2022-08-12T06:03:49.066Z,4.38
2022-08-12T06:04:29.058Z,3.20
2022-08-12T06:05:10.499Z,3.64
2022-08-12T06:05:55.725Z,4.56
2022-08-12T06:06:39.692Z,4.06
2022-08-12T06:07:48.711Z,4.97
2022-08-12T06:08:21.109Z,3.55
2022-08-12T06:09:02.046Z,4.03
2022-08-12T06:09:49.060Z,5.13
2022-08-12T06:10:44.037Z,3.86
2022-08-12T06:11:39.022Z,3.26
2022-08-12T06:12:33.026Z,2.91
2022-08-12T06:13:52.724Z,2.89
2022-08-12T06:14:43.040Z,3.30
2022-08-12T06:15:24.072Z,3.33
2022-08-12T06:16:04.110Z,3.67
2022-08-12T06:16:45.021Z,5.64
2022-08-12T06:17:25.504Z,7.61
2022-08-12T06:18:17.042Z,5.11
2022-08-12T06:18:58.102Z,6.39
2022-08-12T06:20:26.400Z,5.50
2022-08-12T06:20:39.037Z,4.34
2022-08-12T06:21:18.122Z,3.67
2022-08-12T06:22:05.033Z,3.14
2022-08-12T06:22:39.583Z,3.41
2022-08-12T06:23:27.042Z,3.83
2022-08-12T06:24:01.346Z,4.15
2022-08-12T06:24:48.037Z,3.38
2022-08-12T06:25:22.372Z,3.50
2022-08-12T06:26:03.057Z,4.49
2022-08-12T06:26:44.535Z,4.22
2022-08-12T06:27:26.017Z,4.94
2022-08-12T06:28:08.441Z,4.31
2022-08-12T06:28:51.021Z,2.90
2022-08-12T06:30:06.584Z,2.92
2022-08-12T06:30:37.880Z,3.90
2022-08-12T06:31:26.282Z,5.00
2022-08-12T06:32:01.077Z,3.35
2022-08-12T06:33:04.250Z,2.83
2022-08-12T06:33:59.593Z,2.96
2022-08-12T06:35:24.277Z,3.60
2022-08-12T06:35:47.957Z,3.10
2022-08-12T06:36:36.079Z,2.65
2022-08-12T06:37:12.090Z,2.69
2022-08-12T06:38:03.039Z,3.26
2022-08-12T06:38:37.069Z,3.94
2022-08-12T06:39:24.042Z,4.50
2022-08-12T06:40:01.607Z,3.51
2022-08-12T06:41:18.019Z,2.79
2022-08-12T06:42:31.998Z,2.55
2022-08-12T06:43:28.042Z,3.19
2022-08-12T06:44:43.050Z,2.64
2022-08-12T06:45:46.011Z,2.05
2022-08-12T06:46:43.059Z,1.95
2022-08-12T06:47:32.076Z,2.28
2022-08-12T06:48:12.161Z,3.47
2022-08-12T06:49:05.045Z,4.00
2022-08-12T06:49:39.152Z,2.86
2022-08-12T06:50:28.020Z,3.33
2022-08-12T06:51:06.275Z,2.80
2022-08-12T06:51:56.747Z,2.64
2022-08-12T06:52:39.135Z,2.95
2022-08-12T06:53:33.053Z,2.95
2022-08-12T06:54:31.635Z,2.84
2022-08-12T06:55:32.055Z,2.76
2022-08-12T06:56:46.061Z,2.36
2022-08-12T06:58:07.276Z,3.01
2022-08-12T06:58:54.987Z,2.95
2022-08-12T06:59:48.976Z,3.58
2022-08-12T07:00:47.048Z,2.69
2022-08-12T07:01:41.008Z,2.83
2022-08-12T07:02:45.158Z,2.94
2022-08-12T07:03:41.999Z,3.08
2022-08-12T07:04:38.495Z,2.49
2022-08-12T07:05:32.978Z,4.10
2022-08-12T07:06:27.969Z,4.07
2022-08-12T07:07:23.026Z,3.71
2022-08-12T07:08:10.341Z,2.63
2022-08-12T07:08:46.120Z,2.50
2022-08-12T07:10:04.087Z,1.99
2022-08-12T07:10:29.113Z,2.26
2022-08-12T07:11:17.974Z,2.78
2022-08-12T07:12:00.045Z,2.88
2022-08-12T07:12:40.178Z,2.49
2022-08-12T07:13:29.129Z,3.55
2022-08-12T07:14:13.041Z,4.60
2022-08-12T07:15:01.012Z,3.28
2022-08-12T07:15:35.457Z,2.85
2022-08-12T07:16:28.050Z,3.75
2022-08-12T07:17:03.647Z,3.21
2022-08-12T07:17:53.965Z,3.92
2022-08-12T07:18:38.029Z,2.58
2022-08-12T07:19:18.062Z,1.80
2022-08-12T07:20:04.341Z,1.50
2022-08-12T07:20:52.573Z,1.76
2022-08-12T07:22:00.295Z,3.51
2022-08-12T07:22:35.198Z,3.19
2022-08-12T07:23:17.009Z,2.04
2022-08-12T07:23:57.250Z,3.38
2022-08-12T07:24:31.145Z,2.65
2022-08-12T07:25:24.156Z,2.47
2022-08-12T07:26:05.989Z,3.14
2022-08-12T07:26:44.252Z,3.30
2022-08-12T07:27:18.723Z,2.76
2022-08-12T07:28:01.973Z,2.71
2022-08-12T07:28:45.219Z,2.94
2022-08-12T07:30:02.528Z,4.43
2022-08-12T07:30:28.169Z,11.15
2022-08-12T07:31:17.448Z,86.78
2022-08-12T07:31:59.421Z,111.51
2022-08-12T07:32:40.041Z,159.48
2022-08-12T07:33:22.333Z,44.05
2022-08-12T07:34:04.048Z,9.30
2022-08-12T07:34:51.051Z,4.32
2022-08-12T07:35:24.800Z,3.10
2022-08-12T07:36:14.059Z,2.36
2022-08-12T07:36:48.963Z,5.26
2022-08-12T07:37:37.017Z,5.86
2022-08-12T07:38:42.341Z,3.36
2022-08-12T07:39:29.998Z,4.00
2022-08-12T07:40:11.056Z,3.20
2022-08-12T07:40:51.161Z,3.39
2022-08-12T07:41:37.987Z,3.19
2022-08-12T07:42:18.824Z,2.75
2022-08-12T07:42:59.959Z,3.90
2022-08-12T07:43:44.164Z,4.56
2022-08-12T07:44:24.971Z,4.30
2022-08-12T07:45:07.329Z,4.10
2022-08-12T07:45:48.055Z,2.03
2022-08-12T07:46:32.093Z,2.47
2022-08-12T07:47:12.998Z,2.41
2022-08-12T07:47:56.099Z,2.26
2022-08-12T07:48:44.975Z,2.13
2022-08-12T07:49:28.022Z,2.29
2022-08-12T07:50:08.980Z,2.47
2022-08-12T07:50:57.004Z,2.03
2022-08-12T07:51:31.645Z,2.13
2022-08-12T07:52:18.974Z,3.31
2022-08-12T07:52:52.699Z,3.46
2022-08-12T07:53:52.002Z,2.60
2022-08-12T07:54:34.709Z,2.17
2022-08-12T07:55:22.951Z,2.34
2022-08-12T07:55:56.691Z,2.39
2022-08-12T07:56:37.987Z,2.69
2022-08-12T07:57:13.747Z,2.60
2022-08-12T07:57:54.137Z,2.28
2022-08-12T07:58:34.951Z,2.84
2022-08-12T07:59:18.030Z,3.05
2022-08-12T07:59:57.975Z,2.50
2022-08-12T08:01:11.846Z,2.81
2022-08-12T08:02:13.363Z,2.31
2022-08-12T08:03:16.200Z,2.95
2022-08-12T08:04:19.588Z,5.38
2022-08-12T08:05:01.048Z,13.88
2022-08-12T08:05:52.048Z,127.25
2022-08-12T08:06:33.088Z,149.18
2022-08-12T08:08:35.956Z,9.98
2022-08-12T08:09:12.134Z,2.92
2022-08-12T08:09:45.744Z,3.80
2022-08-12T08:10:26.979Z,2.84
2022-08-12T08:11:24.397Z,2.05
2022-08-12T08:12:30.011Z,1.90
2022-08-12T08:13:12.060Z,2.56
2022-08-12T08:14:09.961Z,3.53
2022-08-12T08:15:04.949Z,4.55
2022-08-12T08:16:04.124Z,2.54
2022-08-12T08:16:57.958Z,1.61
2022-08-12T08:17:52.949Z,1.83
2022-08-12T08:18:34.283Z,2.67
2022-08-12T08:19:20.712Z,3.53
2022-08-12T08:20:04.417Z,3.86
2022-08-12T08:20:52.045Z,4.25
2022-08-12T08:21:41.984Z,3.21
2022-08-12T08:22:33.397Z,2.59
2022-08-12T08:24:10.801Z,2.46
2022-08-12T08:25:05.681Z,2.76
2022-08-12T08:26:21.653Z,3.75
2022-08-12T08:28:42.653Z,4.07
2022-08-12T08:29:30.666Z,3.19
2022-08-12T08:30:27.650Z,3.17
2022-08-12T08:31:21.653Z,2.56
2022-08-12T08:32:16.652Z,2.33
2022-08-12T08:33:22.664Z,2.40
2022-08-12T08:34:33.685Z,3.74
2022-08-12T08:35:19.649Z,2.76
2022-08-12T08:36:06.816Z,3.01
2022-08-12T08:36:52.621Z,2.17
2022-08-12T08:37:33.096Z,1.51
2022-08-12T08:38:33.117Z,1.58
2022-08-12T08:39:21.993Z,2.10
2022-08-12T08:40:22.761Z,2.55
2022-08-12T08:42:15.683Z,2.99
2022-08-12T08:42:51.190Z,2.41
2022-08-12T08:43:44.067Z,69.00
2022-08-12T08:44:26.612Z,74.53
2022-08-12T08:45:13.118Z,17.42
2022-08-12T08:45:54.686Z,4.06
2022-08-12T08:46:37.883Z,3.54
2022-08-12T08:47:19.709Z,3.15
2022-08-12T08:48:05.347Z,2.17
2022-08-12T08:48:47.628Z,2.90
2022-08-12T08:49:29.835Z,3.09
2022-08-12T08:50:11.663Z,3.05
2022-08-12T08:50:56.753Z,2.97
2022-08-12T08:51:49.669Z,2.80
2022-08-12T08:52:45.517Z,3.09
2022-08-12T08:53:26.921Z,4.53
2022-08-12T08:54:08.675Z,5.06
2022-08-12T08:54:49.646Z,3.44
2022-08-12T08:55:47.981Z,2.05
2022-08-12T08:56:29.653Z,1.95
2022-08-12T08:57:14.667Z,2.55
2022-08-12T08:57:50.231Z,3.61
2022-08-12T08:58:37.645Z,2.38
2022-08-12T08:59:11.863Z,3.72
2022-08-12T08:59:58.655Z,4.78
2022-08-12T09:00:34.008Z,2.45
2022-08-12T09:01:24.715Z,3.01
2022-08-12T09:01:58.753Z,2.96
2022-08-12T09:02:41.996Z,2.29
2022-08-12T09:05:10.124Z,3.80
2022-08-12T09:05:12.608Z,5.51
2022-08-12T09:05:43.182Z,3.36
2022-08-12T09:06:37.121Z,2.97
2022-08-12T09:07:51.101Z,3.84
2022-08-12T09:08:26.792Z,3.00
2022-08-12T09:09:13.494Z,2.39
2022-08-12T09:10:02.208Z,2.16
2022-08-12T09:10:47.288Z,2.63
2022-08-12T09:12:07.316Z,3.55
2022-08-12T09:13:23.496Z,3.97
2022-08-12T09:14:18.824Z,2.49
2022-08-12T09:15:00.224Z,2.17
2022-08-12T09:16:45.709Z,2.76
2022-08-12T09:17:55.073Z,2.95
2022-08-12T09:18:38.903Z,2.65
2022-08-12T09:19:27.357Z,2.30
2022-08-12T09:20:16.008Z,2.59
2022-08-12T09:20:59.603Z,2.28
2022-08-12T09:21:54.176Z,3.49
2022-08-12T09:22:36.593Z,4.54
2022-08-12T09:25:34.500Z,2.69
2022-08-12T09:26:16.581Z,2.51
2022-08-12T09:26:59.000Z,3.55
2022-08-12T09:28:04.209Z,4.15
2022-08-12T09:30:10.345Z,3.74
2022-08-12T09:30:42.410Z,3.56
2022-08-12T09:32:03.131Z,2.74
2022-08-12T09:32:56.531Z,2.91
2022-08-12T09:34:26.388Z,3.00
2022-08-12T09:34:31.065Z,2.89
2022-08-12T09:35:18.612Z,2.85
2022-08-12T09:36:05.718Z,3.90
2022-08-12T09:37:00.767Z,4.53
2022-08-12T09:37:55.338Z,3.72
2022-08-12T09:38:40.601Z,2.88
2022-08-12T09:40:01.604Z,3.41
2022-08-12T09:41:02.260Z,2.38
2022-08-12T09:42:35.788Z,2.56
2022-08-12T09:43:30.643Z,2.66
2022-08-12T09:44:43.625Z,2.64
2022-08-12T09:46:19.361Z,2.64
2022-08-12T09:46:40.683Z,3.79
2022-08-12T09:47:29.632Z,2.56
2022-08-12T09:48:20.428Z,3.53
2022-08-12T09:49:03.931Z,4.76
2022-08-12T09:49:57.886Z,2.95
2022-08-12T09:50:50.530Z,2.92
2022-08-12T09:51:50.626Z,3.88
2022-08-12T09:52:45.614Z,2.86
2022-08-12T09:53:41.579Z,3.21
2022-08-12T09:54:35.596Z,3.05
2022-08-12T09:55:59.418Z,2.64
2022-08-12T09:57:01.131Z,3.64
2022-08-12T09:58:46.416Z,3.51
2022-08-12T09:58:56.856Z,2.78
2022-08-12T10:00:15.194Z,3.10
2022-08-12T10:00:52.106Z,2.96
2022-08-12T10:02:42.137Z,3.26
2022-08-12T10:03:31.342Z,3.58
2022-08-12T10:04:26.615Z,3.65
2022-08-12T10:06:20.070Z,2.01
2022-08-12T10:06:55.475Z,2.59
2022-08-12T10:07:40.561Z,2.65
2022-08-12T10:08:23.685Z,2.92
2022-08-12T10:09:04.557Z,2.42
2022-08-12T10:09:58.395Z,2.64
2022-08-12T10:10:42.564Z,2.35
2022-08-12T10:12:11.722Z,2.54
2022-08-12T10:13:38.851Z,3.14
2022-08-12T10:14:36.155Z,3.54
2022-08-12T10:16:02.896Z,4.39
2022-08-12T10:16:50.651Z,5.05
2022-08-12T10:17:57.263Z,4.47
2022-08-12T10:19:03.563Z,3.90
2022-08-12T10:19:59.834Z,2.50
2022-08-12T10:20:55.581Z,3.36
2022-08-12T10:21:56.638Z,3.57
2022-08-12T10:22:51.106Z,3.75
2022-08-12T10:23:46.148Z,3.34
2022-08-12T10:24:42.578Z,2.46
2022-08-12T10:26:34.506Z,2.26
2022-08-12T10:27:31.574Z,3.11
2022-08-12T10:29:01.676Z,2.35
2022-08-12T10:30:01.773Z,2.22
2022-08-12T10:30:59.299Z,2.41
2022-08-12T10:32:21.783Z,3.26
2022-08-12T10:32:57.786Z,2.36
2022-08-12T10:34:05.274Z,3.30
2022-08-12T10:35:04.551Z,3.25
2022-08-12T10:35:59.568Z,2.51
2022-08-12T10:36:55.573Z,2.39
2022-08-12T10:38:35.920Z,2.81
2022-08-12T10:38:56.435Z,3.44
2022-08-12T10:40:00.699Z,3.69
2022-08-12T10:41:04.069Z,3.88
2022-08-12T10:42:02.911Z,4.11
2022-08-12T10:43:05.581Z,3.35
2022-08-12T10:43:55.278Z,4.00
2022-08-12T10:44:40.611Z,4.26
2022-08-12T10:45:20.612Z,2.91
2022-08-12T10:46:04.566Z,2.88
2022-08-12T10:46:55.238Z,3.20
2022-08-12T10:48:19.247Z,4.38
2022-08-12T10:48:41.651Z,2.38
2022-08-12T10:50:05.737Z,2.79
2022-08-12T10:50:33.710Z,2.63
2022-08-12T10:52:03.660Z,2.71
2022-08-12T10:52:33.974Z,2.36
2022-08-12T10:53:21.294Z,2.95
2022-08-12T10:54:29.601Z,3.81
2022-08-12T10:55:07.006Z,3.63
2022-08-12T10:55:56.368Z,3.63
2022-08-12T10:56:38.845Z,2.53
2022-08-12T10:58:12.879Z,2.86
2022-08-12T10:58:27.907Z,3.04
2022-08-12T10:59:11.644Z,3.81
2022-08-12T11:00:31.497Z,4.78
2022-08-12T11:01:49.791Z,3.08
2022-08-12T11:04:17.896Z,4.13
2022-08-12T11:04:25.039Z,3.39
2022-08-12T11:04:25.806Z,4.61
2022-08-12T11:07:03.197Z,2.95
2022-08-12T11:07:08.851Z,2.14
2022-08-12T11:08:33.668Z,2.11
2022-08-12T11:08:47.119Z,2.13
2022-08-12T11:10:00.478Z,3.21
2022-08-12T11:10:56.523Z,2.66
2022-08-12T11:12:36.588Z,3.16
2022-08-12T11:12:59.119Z,3.45
2022-08-12T11:13:46.998Z,3.16
2022-08-12T11:14:49.740Z,2.71
2022-08-12T11:16:02.951Z,3.79
2022-08-12T11:16:33.843Z,2.91
2022-08-12T11:17:43.168Z,2.97
2022-08-12T11:18:20.572Z,3.88
2022-08-12T11:19:03.082Z,3.91
2022-08-12T11:19:47.933Z,3.38
2022-08-12T11:20:31.082Z,3.00
2022-08-12T11:21:15.972Z,2.66
2022-08-12T11:22:03.043Z,3.31
2022-08-12T11:22:43.535Z,2.33
2022-08-12T11:23:36.879Z,3.25
2022-08-12T11:24:31.906Z,2.74
2022-08-12T11:25:10.574Z,3.40
2022-08-12T11:26:05.012Z,4.90
2022-08-12T11:26:40.595Z,3.50
2022-08-12T11:27:29.537Z,3.89
2022-08-12T11:28:10.580Z,4.56
2022-08-12T11:29:22.587Z,3.75
2022-08-12T11:30:31.461Z,2.96
2022-08-12T11:31:29.351Z,3.74
2022-08-12T11:32:43.494Z,2.67
2022-08-12T11:34:05.277Z,2.38
2022-08-12T11:34:51.315Z,2.84
2022-08-12T11:35:35.517Z,2.64
2022-08-12T11:36:15.577Z,2.50
2022-08-12T11:37:25.952Z,2.45
2022-08-12T11:38:01.874Z,3.24
2022-08-12T11:38:50.475Z,3.13
2022-08-12T11:40:34.510Z,4.14
2022-08-12T11:41:08.624Z,3.30
2022-08-12T11:41:57.492Z,3.64
2022-08-12T11:42:33.543Z,4.00
2022-08-12T11:43:20.623Z,4.38
2022-08-12T11:44:12.625Z,4.61
2022-08-12T11:45:17.462Z,5.90
2022-08-12T11:46:12.478Z,3.66
2022-08-12T11:47:12.469Z,2.79
2022-08-12T11:48:11.480Z,2.29
2022-08-12T11:49:09.520Z,2.13
2022-08-12T11:50:19.725Z,2.58
2022-08-12T11:51:13.441Z,3.84